Seaham, United Kingdom
Current Conditions -  °F | °C
As of 9:50 PM on Thursday 18 Dec 2014 (Local Time) from EGNT Reporting Station
Clear Clear  
Wind Chill: 38°   Ceiling: Unl
Heat Index: 46°   Visibility: 6mi
Dew Point: 39°   Wind: 28mph
Humidity: 76%   Direction: 260°W
Pressure: 29.44"   Gusts: NA
Location:  54.84°N, 1.34°W
Report Text: EGNT 182150Z 26024KT CAVOK 08/04 Q0997
Loading
Personal Weather Stations






























Interactive Weather Map New forecast layout! Learn more

10-Day Weather Forecast

Advertisements
Track Severe Weather on mobile